Date,TemperatureHighF,TemperatureAvgF,TemperatureLowF,DewpointHighF,DewpointAvgF,DewpointLowF,HumidityHigh,HumidityAvg,HumidityLow,PressureMaxIn,PressureMinIn,WindSpeedMaxMPH,WindSpeedAvgMPH,GustSpeedMaxMPH,PrecipitationSumIn
2013-3-1,31,28,26,26,24,22,88,84,77,30.21,30.07,0,0,0,0.00
2013-3-2,30,25,16,24,20,12,92,79,67,30.22,30.17,3,0,0,0.00
2013-3-3,34,23,14,20,15,11,87,73,46,30.20,30.11,0,0,0,0.00
2013-3-4,35,30,24,29,25,20,87,80,73,30.14,29.97,0,0,0,0.00
2013-3-5,36,32,28,34,31,27,96,93,87,30.00,29.79,0,0,0,0.36
2013-3-6,31,29,28,27,26,25,95,88,83,30.34,30.01,0,0,0,0.06
2013-3-7,39,30,22,28,25,20,92,81,59,30.44,30.33,0,0,0,0.15
2013-3-8,38,28,15,31,24,13,95,85,73,30.50,30.32,0,0,0,0.01
2013-3-9,40,37,32,36,33,28,92,86,83,30.31,29.83,0,0,0,0.04
2013-3-10,51,43,37,47,42,35,97,94,85,29.88,29.58,0,0,0,0.94
2013-3-11,46,38,33,45,36,29,100,94,86,29.85,29.58,0,0,0,0.09
2013-3-12,39,32,28,32,27,21,93,81,71,30.07,29.85,0,0,0,0.03
2013-3-13,33,29,25,23,21,18,84,74,53,30.36,30.07,0,0,0,0.00
2013-3-14,36,31,24,33,27,19,94,85,70,30.36,30.09,0,0,0,0.03
2013-3-15,46,38,29,41,35,28,95,90,81,30.08,29.71,0,0,0,0.00
2013-3-16,38,34,32,35,32,27,100,89,82,30.13,29.68,0,0,0,0.00
2013-3-17,40,33,29,30,26,23,83,76,65,30.20,29.97,0,0,0,0.00
2013-3-18,37,32,24,35,28,16,100,87,71,29.97,29.65,0,0,0,0.08
2013-3-19,37,28,20,22,17,12,76,66,48,30.14,29.88,0,0,0,0.00
2013-3-20,28,23,16,20,13,8,83,68,57,30.16,30.07,0,0,0,0.00
2013-3-21,35,24,15,19,14,9,85,69,50,30.11,30.03,2,0,0,0.00
2013-3-22,42,30,17,23,20,15,92,68,43,30.09,30.02,0,0,0,0.00
2013-3-23,47,35,24,29,25,21,91,70,44,30.13,29.99,0,0,0,0.00
2013-3-24,37,34,31,31,28,26,95,82,70,30.02,29.65,0,0,0,0.00
2013-3-25,36,33,29,31,28,25,100,84,78,30.11,29.70,0,0,0,0.00
2013-3-26,40,36,33,31,29,27,84,76,62,30.28,30.10,0,0,0,0.00
2013-3-27,44,37,28,30,26,21,83,66,46,30.35,30.28,0,0,0,0.00
2013-3-28,51,36,26,31,26,21,89,70,44,30.38,30.28,0,0,0,0.00
2013-3-29,55,43,30,37,31,24,93,65,41,30.32,30.22,0,0,0,0.00
2013-3-30,59,45,28,44,34,22,85,69,48,30.25,29.87,0,0,0,0.00
2013-3-31,61,49,38,45,39,28,95,71,41,29.90,29.73,0,0,0,0.01